עמוד ראשי
תמונות לווין תחזית 10-יוםאקליםתחזית ים סופות טרופיות ברקים שדות תעופהשאלות נפוצות עלון אודות
מזג אוויר : אירופה אפריקה אמריקה הצפונית אמריקה הדרומית אסיה אוסטרליה-אוקיאניה אחרים
שפות איש קשר

זלצבורג, אוסטריה

קו רוחב: 47-48N, קו אורך: 013-00E, גובה: 430מטר


METAR: LOWS 210420Z 17003KT 9999 FEW080 SCT300 02/01 Q1027 NOSIG
TAF: LOWS 202315Z 2100/2124 16005KT CAVOK TX16/2114Z TN06/2104Z BECMG 2107/2109 34008KT 9999 FEW060 BECMG 2118/2120 16005KT CAVOK

זמן: 06:59 (04:59 UTC)

תצפית מזג אוויר נוכחית

הדו"ח נערך לפני 39דקות, בשעה 04:20 UTC
רוח 3קשר מכיוון דרום
טמפרטורת 2 צלסיוס
לחות 93%
לחץ 1027 hPa
ראות 10 קילומטר או יותר
מעט עננים בגובה 8000רגל
עננים פזורים בגובה 30000רגל

שנה יחידות

תחזית

הדו"ח נערך לפני 5 שעות ו 44דקות, בשעה 23:15 UTC
תחזית בתוקף מ 21 ב 00 UTC עד 21 ב 24 UTC
רוח 5קשר מכיוון דרום/דרום-מזרח
ראות 10 קילומטר או יותר
ללא עננים שבסיסם נמוך מ 1500 רגל או קומולונימבוס
יעשה מ
21 ב 07 UTC עד 21 ב 09 UTC
רוח 8קשר מכיוון צפון/צפון-מערב
ראות 10 קילומטר או יותר
מעט עננים בגובה 6000רגל
יעשה מ
21 ב 18 UTC עד 21 ב 20 UTC
רוח 5קשר מכיוון דרום/דרום-מזרח
ראות 10 קילומטר או יותר
ללא עננים שבסיסם נמוך מ 1500 רגל או קומולונימבוס
המידע באתר זה מותנה של תניית פטור
מזג אוויר : אירופה אפריקה אמריקה הצפונית אמריקה הדרומית אסיה אוסטרליה-אוקיאניה אחרים
תמונות לווין תחזית 10-יוםאקליםתחזית ים סופות טרופיות ברקים שדות תעופהשאלות נפוצות שפות איש קשר עלון אודות